Hlavní strana
METAR-TAF:

METAR-TAF

Letiště :

Northeast Georgia Regional Airport

Winder, Georgie, Spojené státy americké

zeměpisná šířka: 33-58-56N, zeměpisná délka: 083-40-05W, výška: 287 m

Aktuální stav počasí

Zpráva byla vytvořena před 21 minutami, v 01:55 UTC
Severní vítr 3 kt
Teplota 4°C
Vlhkost vzduchu 93%
Tlak 1021 hPa
Viditelnost: 4.8 km
Oblačno až skoro zataženo ve výšce 500 ft
Oblačno až skoro zataženo ve výšce 1000 ft
Zataženo ve výšce 1800 ft
silný déšť

METAR: KWDR 190155Z AUTO 01003KT 3SM +RA BKN005 BKN010 OVC018 04/03 A3016 RMK AO2

Čas: 21:16 (02:16 UTC)


TAF: chybějící

Stav a předpovědi počasí z více než 4 000 letišť (zprávy METAR a TAF).

Červené a žluté tečky na mapě představují dostupné meteorologické stanice.

Když kurzor umístíte na tečku, zobrazí se název stanice.

Pak kliknutím zobrazíte stav a předpověď počasí.

Chcete-li změnit mapu, kliknutím na zelené tlačítko se znaménkem +mapu přiblížíte, kliknutím na zelené tlačítko se znaménkem – mapu oddálíte a kliknutím na zelené šipky přejdete na sousední mapy.


METAR-TAF: